Time;durP1;ratioP1;P1;durP2;ratioP2;P2;SDS_P1;SDS_P2;PMS_P1;PMS_P2;Temp;Humidity;BMP_temperature;BMP_pressure;BME280_temperature;BME280_humidity;BME280_pressure;Samples;Min_cycle;Max_cycle;Signal;HPM_P1;HPM_P2
2022/12/19 00:01:37;;;;;;;;;33.25;26.75;;;;;4.40;77.58;101058.19;5035917;28;45376;-61
2022/12/19 00:04:10;;;;;;;;;29.75;29.50;;;;;4.44;76.83;101059.06;5034285;28;45461;-61
2022/12/19 00:06:37;;;;;;;;;27.00;24.75;;;;;4.46;77.37;101075.56;5033562;28;45388;-61
2022/12/19 00:09:04;;;;;;;;;27.75;26.00;;;;;4.50;77.76;101072.06;5036018;28;45421;-61
2022/12/19 00:11:30;;;;;;;;;26.50;24.75;;;;;4.52;76.56;101069.47;5035612;28;45374;-61
2022/12/19 00:13:57;;;;;;;;;28.25;25.75;;;;;4.53;76.78;101061.63;5025051;28;45449;-61
2022/12/19 00:16:24;;;;;;;;;24.75;24.75;;;;;4.55;77.01;101070.31;5031868;28;45573;-61
2022/12/19 00:18:52;;;;;;;;;32.25;29.50;;;;;4.51;76.76;101049.47;5022917;28;45534;-61
2022/12/19 00:21:20;;;;;;;;;26.50;26.50;;;;;4.56;76.55;101072.03;5033343;28;45421;-61
2022/12/19 00:23:46;;;;;;;;;30.50;29.00;;;;;4.57;76.83;101065.97;5035506;28;45310;-61
2022/12/19 00:26:30;;;;;;;;;25.75;25.75;;;;;4.60;76.38;101067.69;5032653;28;46508;-61
2022/12/19 00:29:01;;;;;;;;;23.25;23.25;;;;;4.58;77.09;101059.00;5026313;28;45377;-61
2022/12/19 00:31:29;;;;;;;;;28.00;24.75;;;;;4.61;76.98;101053.78;5033423;28;45393;-61
2022/12/19 00:33:55;;;;;;;;;25.50;24.75;;;;;4.62;77.32;101047.69;5035274;28;45562;-61
2022/12/19 00:36:23;;;;;;;;;31.75;24.50;;;;;4.64;76.77;101056.38;5034937;28;45534;-61
2022/12/19 00:38:50;;;;;;;;;28.50;26.00;;;;;4.63;76.49;101052.91;5035299;28;45551;-61
2022/12/19 00:41:19;;;;;;;;;30.25;29.50;;;;;4.65;76.84;101048.56;5034855;28;45416;-61
2022/12/19 00:43:45;;;;;;;;;24.75;20.50;;;;;4.62;76.74;101039.88;5035205;28;45358;-61
2022/12/19 00:46:13;;;;;;;;;24.25;22.00;;;;;4.68;76.60;101046.84;5029638;28;45558;-61
2022/12/19 00:48:40;;;;;;;;;23.00;22.75;;;;;4.65;76.42;101030.34;5034745;28;45575;-62
2022/12/19 00:51:15;;;;;;;;;25.00;22.75;;;;;4.70;76.87;101027.72;5029051;28;45388;-62
2022/12/19 00:53:40;;;;;;;;;32.75;27.00;;;;;4.70;76.56;101034.66;5041572;28;45499;-61
2022/12/19 00:56:18;;;;;;;;;28.00;26.25;;;;;4.69;76.95;101025.97;5041836;28;45495;-62
2022/12/19 00:58:44;;;;;;;;;25.75;22.25;;;;;4.68;76.59;101021.66;5039818;28;45448;-61
2022/12/19 01:01:14;;;;;;;;;26.50;22.75;;;;;4.70;76.80;101022.50;5027246;28;45444;-62
2022/12/19 01:03:40;;;;;;;;;23.25;21.75;;;;;4.72;76.94;101022.47;5034683;28;45364;-59
2022/12/19 01:06:05;;;;;;;;;29.75;27.25;;;;;4.73;77.55;101019.88;5041185;28;46385;-60
2022/12/19 01:08:31;;;;;;;;;22.25;20.50;;;;;4.74;77.10;101013.78;5041901;28;45468;-59
2022/12/19 01:10:57;;;;;;;;;17.75;15.25;;;;;4.80;76.57;101023.31;5041581;28;45400;-59
2022/12/19 01:13:24;;;;;;;;;22.00;21.50;;;;;4.77;77.10;101012.91;5041780;28;45477;-59
2022/12/19 01:15:50;;;;;;;;;21.50;21.50;;;;;4.73;76.59;101009.47;5041252;28;45559;-60
2022/12/19 01:18:15;;;;;;;;;23.75;22.75;;;;;4.75;76.99;101012.91;5038560;28;45845;-60
2022/12/19 01:20:46;;;;;;;;;22.00;21.50;;;;;4.85;76.61;101025.03;5033573;28;45713;-60
2022/12/19 01:23:12;;;;;;;;;20.50;18.75;;;;;4.86;76.87;101024.16;5040088;28;45448;-60
2022/12/19 01:25:37;;;;;;;;;21.25;21.00;;;;;4.88;76.96;101024.13;5041378;28;46646;-60
2022/12/19 01:28:05;;;;;;;;;23.50;22.50;;;;;4.87;76.31;101015.47;5039508;28;45427;-60
2022/12/19 01:30:31;;;;;;;;;22.25;19.50;;;;;4.91;76.83;101021.50;5040415;28;45566;-60
2022/12/19 01:32:57;;;;;;;;;22.75;19.75;;;;;4.89;76.98;101023.28;5041069;28;45518;-61
2022/12/19 01:35:23;;;;;;;;;23.50;23.00;;;;;4.93;77.17;101026.72;5041184;28;46617;-60
2022/12/19 01:37:52;;;;;;;;;22.25;20.50;;;;;4.96;76.54;101022.34;5040940;28;45430;-60
2022/12/19 01:40:19;;;;;;;;;22.00;20.75;;;;;4.97;77.05;101024.09;5037401;28;45342;-60
2022/12/19 01:42:45;;;;;;;;;22.25;21.25;;;;;5.00;77.26;101025.84;5033962;28;45355;-60
2022/12/19 01:45:10;;;;;;;;;22.25;19.00;;;;;5.00;76.92;101011.06;5040674;28;45368;-60
2022/12/19 01:47:49;;;;;;;;;24.25;18.50;;;;;5.02;77.09;101005.81;5040972;28;45376;-60
2022/12/19 01:50:23;;;;;;;;;17.50;17.25;;;;;4.94;77.13;100990.22;5025106;28;45365;-60
2022/12/19 01:52:50;;;;;;;;;21.75;19.50;;;;;5.05;76.67;101001.47;5039894;28;45575;-60
2022/12/19 01:55:16;;;;;;;;;18.50;18.25;;;;;4.99;76.67;100993.66;5039526;28;47036;-60
2022/12/19 01:57:42;;;;;;;;;22.00;17.00;;;;;5.09;76.55;101005.78;5036008;28;45529;-60
2022/12/19 02:00:08;;;;;;;;;21.75;20.00;;;;;5.11;76.71;101007.53;5037000;28;45540;-61
2022/12/19 02:02:43;;;;;;;;;18.50;14.50;;;;;5.15;76.51;101004.00;5037526;28;45374;-60
2022/12/19 02:05:09;;;;;;;;;18.00;18.00;;;;;5.15;76.83;101012.69;5037376;28;46327;-60
2022/12/19 02:07:38;;;;;;;;;17.50;16.75;;;;;5.16;76.93;101018.75;5037568;28;45362;-60
2022/12/19 02:10:04;;;;;;;;;21.75;20.50;;;;;5.18;76.87;101019.63;5037557;28;45422;-60
2022/12/19 02:12:36;;;;;;;;;25.50;23.50;;;;;5.20;77.02;101013.53;5037161;28;45654;-60
2022/12/19 02:15:04;;;;;;;;;18.75;18.75;;;;;5.19;76.58;101009.19;5032432;28;45442;-60
2022/12/19 02:17:38;;;;;;;;;23.75;20.75;;;;;5.25;76.65;101018.72;5036811;28;45527;-60
2022/12/19 02:20:36;;;;;;;;;20.75;19.50;;;;;5.23;76.50;101012.63;5023505;28;45502;-60
2022/12/19 02:23:13;;;;;;;;;19.50;18.00;;;;;5.22;77.28;101006.56;5030188;28;45575;-60
2022/12/19 02:26:00;;;;;;;;;18.00;17.50;;;;;5.23;77.06;101007.44;5027566;28;46576;-61
2022/12/19 02:28:38;;;;;;;;;22.25;19.25;;;;;5.23;77.08;101004.81;5023890;28;45343;-61
2022/12/19 02:31:11;;;;;;;;;16.25;16.25;;;;;5.23;77.14;101010.03;5035827;28;45400;-61
2022/12/19 02:33:50;;;;;;;;;24.25;24.25;;;;;5.25;77.15;101010.91;5037042;28;45518;-61
2022/12/19 02:36:21;;;;;;;;;18.75;16.75;;;;;5.26;77.25;101020.44;5033428;28;45563;-61
2022/12/19 02:39:15;;;;;;;;;19.50;18.75;;;;;5.29;77.81;101018.69;5036905;28;45433;-60
2022/12/19 02:42:05;;;;;;;;;18.00;16.75;;;;;5.33;76.97;101022.13;5010244;28;45585;-61
2022/12/19 02:44:44;;;;;;;;;19.75;18.50;;;;;5.28;77.34;101016.09;5035689;28;45361;-61
2022/12/19 02:47:11;;;;;;;;;17.00;17.00;;;;;5.31;77.44;101023.88;5036786;28;45463;-61
2022/12/19 02:49:37;;;;;;;;;17.75;15.00;;;;;5.32;77.58;101018.66;5025603;28;45585;-61
2022/12/19 02:52:12;;;;;;;;;20.75;19.25;;;;;5.30;77.30;101006.50;5032126;28;45507;-61
2022/12/19 02:54:38;;;;;;;;;20.75;18.75;;;;;5.25;77.79;101005.69;5036575;28;45591;-62
2022/12/19 02:57:28;;;;;;;;;17.75;17.75;;;;;5.32;78.02;101012.59;5036552;28;46188;-61
2022/12/19 02:59:57;;;;;;;;;18.00;15.25;;;;;5.34;78.46;101013.41;5036659;28;45403;-61
2022/12/19 03:02:38;;;;;;;;;17.00;16.75;;;;;5.34;78.09;101005.59;5034781;28;45513;-60
2022/12/19 03:05:27;;;;;;;;;17.25;15.25;;;;;5.35;77.80;101001.25;5027050;28;45551;-61
2022/12/19 03:08:00;;;;;;;;;24.25;18.00;;;;;5.31;77.95;101005.63;5036933;28;45486;-61
2022/12/19 03:10:35;;;;;;;;;19.75;19.75;;;;;5.35;78.56;101006.47;5035199;28;45402;-61
2022/12/19 03:13:07;;;;;;;;;22.25;19.75;;;;;5.36;78.56;101005.59;5036577;28;45348;-61
2022/12/19 03:15:34;;;;;;;;;20.75;18.50;;;;;5.36;78.27;101003.84;5035881;28;45551;-61
2022/12/19 03:18:00;;;;;;;;;16.50;16.50;;;;;5.35;78.16;101002.13;5031103;28;46473;-61
2022/12/19 03:20:39;;;;;;;;;20.00;16.75;;;;;5.40;78.52;101015.13;5027083;28;45483;-60
2022/12/19 03:23:05;;;;;;;;;18.50;16.75;;;;;5.41;78.51;101006.44;5036188;28;45494;-61
2022/12/19 03:25:32;;;;;;;;;18.50;15.75;;;;;5.36;78.13;100995.16;5033241;28;45519;-61
2022/12/19 03:28:05;;;;;;;;;13.75;13.75;;;;;5.43;78.52;101008.16;5035203;28;46446;-61
2022/12/19 03:30:34;;;;;;;;;19.00;18.25;;;;;5.46;78.36;101015.09;5030913;28;45978;-60
2022/12/19 03:33:01;;;;;;;;;17.25;15.25;;;;;5.44;78.01;101006.41;5035388;28;45524;-61
2022/12/19 03:35:30;;;;;;;;;17.50;15.00;;;;;5.45;78.35;101003.78;5033350;28;45584;-61
2022/12/19 03:37:57;;;;;;;;;19.25;17.25;;;;;5.50;78.43;101012.44;5026252;28;46534;-61
2022/12/19 03:40:25;;;;;;;;;16.25;16.25;;;;;5.47;77.36;100986.38;5035977;28;45705;-61
2022/12/19 03:43:14;;;;;;;;;17.25;16.25;;;;;5.53;77.90;101001.09;5035925;28;45371;-61
2022/12/19 03:46:07;;;;;;;;;16.00;15.00;;;;;5.56;78.22;101001.06;5035995;28;45500;-61
2022/12/19 03:48:39;;;;;;;;;19.75;16.50;;;;;5.58;78.24;100996.72;5027548;28;45448;-60
2022/12/19 03:51:26;;;;;;;;;17.25;15.25;;;;;5.59;77.75;101003.69;5023014;28;45369;-61
2022/12/19 03:54:02;;;;;;;;;16.50;14.00;;;;;5.60;77.70;100989.75;5034916;28;45663;-61
2022/12/19 03:56:40;;;;;;;;;18.50;14.75;;;;;5.62;78.26;100997.56;5033082;28;45738;-61
2022/12/19 03:59:16;;;;;;;;;13.50;13.50;;;;;5.65;77.75;100995.78;5014896;28;46699;-61
2022/12/19 04:01:43;;;;;;;;;15.75;15.75;;;;;5.64;78.15;100999.28;5019329;28;45370;-61
2022/12/19 04:04:10;;;;;;;;;15.50;15.00;;;;;5.59;78.01;100993.25;5023838;28;45515;-61
2022/12/19 04:06:38;;;;;;;;;18.25;17.50;;;;;5.64;77.69;100994.06;5028674;28;45386;-60
2022/12/19 04:09:04;;;;;;;;;14.75;14.75;;;;;5.71;78.04;101005.31;5029649;28;46144;-62
2022/12/19 04:11:39;;;;;;;;;14.00;14.00;;;;;5.70;77.67;101000.97;5023780;28;45457;-62
2022/12/19 04:14:10;;;;;;;;;17.00;16.00;;;;;5.75;77.56;101004.44;5034328;28;45397;-61
2022/12/19 04:16:54;;;;;;;;;18.00;15.75;;;;;5.78;77.79;101007.00;5021244;28;45542;-61
2022/12/19 04:19:47;;;;;;;;;17.50;14.75;;;;;5.80;78.01;101002.59;5029913;28;47123;-61
2022/12/19 04:22:21;;;;;;;;;18.00;18.00;;;;;5.82;77.34;101003.47;5012199;28;45493;-61
2022/12/19 04:24:50;;;;;;;;;16.50;14.50;;;;;5.86;77.49;101006.94;5035190;28;45537;-61
2022/12/19 04:27:17;;;;;;;;;16.00;13.00;;;;;5.87;77.54;101011.25;5035181;28;45456;-61
2022/12/19 04:29:43;;;;;;;;;16.00;16.00;;;;;5.87;77.28;101006.91;5034959;28;46495;-61
2022/12/19 04:32:13;;;;;;;;;16.00;15.00;;;;;5.87;77.77;101011.25;5028417;28;45428;-61
2022/12/19 04:34:39;;;;;;;;;11.50;11.50;;;;;5.82;77.94;101007.81;5028583;28;45471;-61
2022/12/19 04:37:04;;;;;;;;;12.50;12.50;;;;;5.90;77.63;101008.63;5033717;28;45418;-61
2022/12/19 04:39:30;;;;;;;;;14.75;14.75;;;;;5.88;77.30;101005.16;5034812;28;45542;-61
2022/12/19 04:41:55;;;;;;;;;11.50;9.75;;;;;5.80;77.81;100989.56;5035025;28;45475;-61
2022/12/19 04:44:21;;;;;;;;;13.00;11.75;;;;;5.94;77.45;101005.16;5032416;28;45444;-61
2022/12/19 04:46:46;;;;;;;;;15.75;14.00;;;;;5.97;77.30;101011.19;5029981;28;45504;-61
2022/12/19 04:49:11;;;;;;;;;10.75;9.00;;;;;5.97;77.47;101010.34;5026244;28;45567;-61
2022/12/19 04:51:37;;;;;;;;;12.00;12.00;;;;;5.96;77.73;101006.88;5033732;28;45550;-61
2022/12/19 04:54:02;;;;;;;;;18.00;14.50;;;;;6.00;77.77;101012.06;5034795;28;45532;-61
2022/12/19 04:56:28;;;;;;;;;12.50;11.00;;;;;5.96;77.47;101001.66;5031722;28;45560;-60
2022/12/19 04:58:57;;;;;;;;;16.00;14.75;;;;;5.89;77.75;100994.72;5034001;28;46588;-60
2022/12/19 05:01:23;;;;;;;;;13.50;13.50;;;;;6.02;77.70;101005.03;5034784;28;45446;-60
2022/12/19 05:03:48;;;;;;;;;14.75;12.50;;;;;6.03;77.54;101007.66;5034827;28;45423;-61
2022/12/19 05:06:14;;;;;;;;;15.50;13.50;;;;;6.05;77.71;101005.03;5028526;28;45570;-61
2022/12/19 05:08:41;;;;;;;;;15.00;13.50;;;;;6.08;77.76;101005.00;5026802;28;45403;-61
2022/12/19 05:11:08;;;;;;;;;10.75;10.75;;;;;6.05;77.18;100995.44;5016757;28;45618;-61
2022/12/19 05:13:34;;;;;;;;;17.00;15.50;;;;;6.09;77.65;100997.13;5030271;28;45490;-61
2022/12/19 05:16:02;;;;;;;;;13.25;12.00;;;;;6.08;77.15;100999.78;5030688;28;45567;-61
2022/12/19 05:18:28;;;;;;;;;12.00;12.00;;;;;6.10;77.57;101000.59;5033115;28;45413;-61
2022/12/19 05:20:53;;;;;;;;;14.00;13.50;;;;;6.08;77.94;101000.66;5029295;28;45406;-61
2022/12/19 05:23:19;;;;;;;;;15.50;13.25;;;;;6.11;77.67;101002.34;5034558;28;45353;-61
2022/12/19 05:25:44;;;;;;;;;14.00;14.00;;;;;6.12;77.80;101007.53;5034458;28;45507;-61
2022/12/19 05:28:11;;;;;;;;;15.75;13.75;;;;;6.09;77.79;100997.13;5034128;28;45782;-61
2022/12/19 05:30:36;;;;;;;;;11.50;11.50;;;;;6.12;77.44;100997.09;5034229;28;45401;-61
2022/12/19 05:33:01;;;;;;;;;10.25;10.25;;;;;6.13;77.50;100992.78;5034111;28;45560;-61
2022/12/19 05:35:27;;;;;;;;;12.50;11.50;;;;;6.15;78.38;101004.03;5037768;28;45508;-61
2022/12/19 05:37:52;;;;;;;;;11.50;11.50;;;;;6.13;77.71;100998.00;5037572;28;45498;-61
2022/12/19 05:40:18;;;;;;;;;11.75;10.50;;;;;6.18;77.34;101010.13;5037283;28;45411;-61
2022/12/19 05:42:43;;;;;;;;;15.25;12.00;;;;;6.13;77.95;100998.84;5030598;28;45423;-60
2022/12/19 05:45:09;;;;;;;;;11.50;11.50;;;;;6.19;77.66;101008.38;5029827;28;45493;-61
2022/12/19 05:47:34;;;;;;;;;11.00;11.00;;;;;6.17;77.88;101005.75;5031277;28;45497;-61
2022/12/19 05:49:59;;;;;;;;;12.75;11.00;;;;;6.15;77.99;100999.72;5036618;28;45456;-61
2022/12/19 05:52:25;;;;;;;;;10.25;10.00;;;;;6.15;77.49;100996.19;5037764;28;45540;-61
2022/12/19 05:54:50;;;;;;;;;11.25;11.25;;;;;6.22;77.38;101010.06;5036054;28;45503;-61
2022/12/19 05:57:16;;;;;;;;;12.75;10.50;;;;;6.23;77.62;101007.44;5035828;28;45622;-61
2022/12/19 05:59:41;;;;;;;;;10.75;10.75;;;;;6.24;77.81;101009.19;5025546;28;45523;-61
2022/12/19 06:02:07;;;;;;;;;16.00;14.00;;;;;6.24;77.45;101011.78;5032783;28;45410;-61
2022/12/19 06:04:32;;;;;;;;;14.25;12.00;;;;;6.24;77.35;101013.53;5023885;28;45612;-64
2022/12/19 06:06:58;;;;;;;;;15.00;12.00;;;;;6.18;77.49;100996.19;5034605;28;46467;-64
2022/12/19 06:09:23;;;;;;;;;12.50;12.00;;;;;6.23;77.78;101010.03;5024136;28;45422;-64
2022/12/19 06:11:49;;;;;;;;;12.00;11.00;;;;;6.25;77.90;101010.91;5036666;28;45490;-64
2022/12/19 06:14:14;;;;;;;;;13.25;12.75;;;;;6.28;77.67;101007.38;5036377;28;45463;-64
2022/12/19 06:16:39;;;;;;;;;12.75;10.00;;;;;6.30;77.60;101013.47;5037438;28;46613;-64
2022/12/19 06:19:05;;;;;;;;;14.50;11.75;;;;;6.31;77.64;101004.75;5037467;28;45389;-64
2022/12/19 06:21:30;;;;;;;;;15.50;13.75;;;;;6.30;77.94;101008.25;5037642;28;45398;-64
2022/12/19 06:23:55;;;;;;;;;11.50;11.50;;;;;6.32;77.67;101014.31;5036056;28;45547;-64
2022/12/19 06:26:21;;;;;;;;;13.25;11.75;;;;;6.27;77.76;101009.13;5037420;28;45481;-64
2022/12/19 06:28:51;;;;;;;;;14.00;12.75;;;;;6.36;78.16;101016.00;5037288;28;45405;-64
2022/12/19 06:31:18;;;;;;;;;12.25;11.00;;;;;6.38;77.64;101019.47;5030028;28;45514;-64
2022/12/19 06:33:43;;;;;;;;;14.75;14.75;;;;;6.35;77.87;101003.84;5028588;28;45520;-64
2022/12/19 06:36:21;;;;;;;;;11.00;11.00;;;;;6.41;77.74;101003.75;5024002;28;45457;-64
2022/12/19 06:38:47;;;;;;;;;14.00;14.00;;;;;6.42;77.50;101000.25;5035964;28;45493;-64
2022/12/19 06:44:00;;;;;;;;;15.00;13.25;;;;;6.43;77.86;100998.53;5025741;28;45577;-64
2022/12/19 06:46:25;;;;;;;;;12.75;11.00;;;;;6.37;77.63;100982.03;5036697;28;45865;-64
2022/12/19 06:48:51;;;;;;;;;11.75;11.50;;;;;6.47;77.38;100994.97;5032288;28;45515;-64
2022/12/19 06:51:17;;;;;;;;;14.00;11.75;;;;;6.48;77.40;101000.19;5033341;28;45555;-64
2022/12/19 06:53:42;;;;;;;;;13.75;13.75;;;;;6.51;77.62;100999.31;5035421;28;45566;-64
2022/12/19 06:56:08;;;;;;;;;14.25;12.25;;;;;6.49;77.41;100994.06;5036391;28;45571;-64
2022/12/19 06:58:33;;;;;;;;;11.25;11.25;;;;;6.51;77.33;100988.84;5036381;28;45491;-64
2022/12/19 07:01:00;;;;;;;;;11.50;11.50;;;;;6.53;77.67;101005.34;5033780;28;45584;-64
2022/12/19 07:03:35;;;;;;;;;14.00;12.75;;;;;6.51;77.67;100991.47;5029594;28;45444;-64
2022/12/19 07:06:00;;;;;;;;;13.75;11.50;;;;;6.51;77.75;100994.94;5018747;28;45549;-63
2022/12/19 07:08:26;;;;;;;;;11.25;11.25;;;;;6.55;77.29;101008.81;5027229;28;45381;-66
2022/12/19 07:10:52;;;;;;;;;13.25;11.75;;;;;6.52;77.34;100998.41;5036570;28;45646;-63
2022/12/19 07:13:18;;;;;;;;;15.75;14.50;;;;;6.53;77.10;100995.78;5036413;28;45583;-63
2022/12/19 07:15:43;;;;;;;;;12.50;11.00;;;;;6.53;77.24;101000.13;5030084;28;46202;-62
2022/12/19 07:18:09;;;;;;;;;11.00;9.00;;;;;6.58;76.93;101001.81;5024300;28;45414;-61
2022/12/19 07:20:37;;;;;;;;;15.00;12.00;;;;;6.58;77.44;100998.31;5031231;28;45452;-62
2022/12/19 07:23:04;;;;;;;;;12.75;10.75;;;;;6.59;77.61;101002.69;5034407;28;45396;-62
2022/12/19 07:25:30;;;;;;;;;16.25;14.75;;;;;6.60;77.31;101018.31;5017227;28;45470;-62
2022/12/19 07:27:56;;;;;;;;;15.75;13.25;;;;;6.62;77.88;101008.72;5031588;28;45369;-62
2022/12/19 07:30:21;;;;;;;;;10.75;10.75;;;;;6.60;77.23;101022.69;5035558;28;45359;-68
2022/12/19 07:32:46;;;;;;;;;15.00;15.00;;;;;6.62;77.63;101013.94;5034603;28;45556;-68
2022/12/19 07:35:13;;;;;;;;;12.50;10.75;;;;;6.59;77.39;101010.53;5035398;28;45553;-65
2022/12/19 07:37:38;;;;;;;;;11.00;10.75;;;;;6.59;77.36;101010.53;5036237;28;45571;-67
2022/12/19 07:40:04;;;;;;;;;12.00;11.75;;;;;6.63;77.47;101022.66;5025726;28;45484;-68
2022/12/19 07:42:30;;;;;;;;;12.00;12.00;;;;;6.59;77.42;101021.84;5035674;28;45460;-67
2022/12/19 07:44:55;;;;;;;;;12.00;12.00;;;;;6.62;77.13;101016.56;5030446;28;45451;-66
2022/12/19 07:47:20;;;;;;;;;24.75;20.00;;;;;6.55;77.17;101003.59;5021091;28;45491;-63
2022/12/19 07:49:46;;;;;;;;;15.50;15.50;;;;;6.61;76.91;101009.63;5035014;28;45685;-69
2022/12/19 07:52:11;;;;;;;;;15.00;13.25;;;;;6.56;77.27;101006.19;5034618;28;45497;-70
2022/12/19 07:54:36;;;;;;;;;11.75;11.75;;;;;6.57;77.25;101009.66;5025829;28;45594;-67
2022/12/19 07:57:02;;;;;;;;;11.00;11.00;;;;;6.63;76.93;101014.81;5033009;28;45433;-62
2022/12/19 07:59:27;;;;;;;;;12.25;12.25;;;;;6.69;76.75;101030.44;5029705;28;45582;-65
2022/12/19 08:01:53;;;;;;;;;14.50;12.25;;;;;6.71;76.66;101036.50;5026359;28;45368;-63
2022/12/19 08:04:18;;;;;;;;;13.00;13.00;;;;;6.70;77.11;101034.78;5023338;28;46514;-63
2022/12/19 08:06:45;;;;;;;;;13.25;12.25;;;;;6.70;76.73;101041.75;5032395;28;45417;-60
2022/12/19 08:09:11;;;;;;;;;12.00;12.00;;;;;6.70;76.48;101044.38;5035795;28;45344;-59
2022/12/19 08:11:36;;;;;;;;;11.00;11.00;;;;;6.69;76.63;101050.47;5024842;28;45627;-59
2022/12/19 08:14:02;;;;;;;;;12.50;12.50;;;;;6.66;76.77;101035.69;5033822;28;46654;-59
2022/12/19 08:16:27;;;;;;;;;9.00;9.00;;;;;6.73;76.66;101044.31;5035368;28;45464;-59
2022/12/19 08:18:54;;;;;;;;;15.00;12.50;;;;;6.75;76.26;101045.19;5035420;28;45365;-59
2022/12/19 08:21:19;;;;;;;;;11.75;10.25;;;;;6.71;76.77;101031.25;5035164;28;45491;-60
2022/12/19 08:23:45;;;;;;;;;12.50;10.75;;;;;6.75;76.90;101038.19;5032345;28;46884;-59
2022/12/19 08:26:14;;;;;;;;;11.50;11.50;;;;;6.76;76.89;101037.28;5031277;28;45502;-59
2022/12/19 08:28:39;;;;;;;;;12.00;12.00;;;;;6.76;76.34;101041.66;5035346;28;45420;-59
2022/12/19 08:31:10;;;;;;;;;8.75;8.75;;;;;6.81;76.73;101047.72;5034779;28;45341;-59
2022/12/19 08:33:35;;;;;;;;;11.50;10.75;;;;;6.77;76.13;101039.03;5034828;28;47056;-59
2022/12/19 08:36:05;;;;;;;;;12.75;11.25;;;;;6.73;76.12;101023.41;5034915;28;45444;-60
2022/12/19 08:38:31;;;;;;;;;10.75;8.25;;;;;6.82;76.65;101031.13;5034881;28;45462;-59
2022/12/19 08:40:56;;;;;;;;;10.00;10.00;;;;;6.81;76.33;101035.50;5035067;28;45599;-59
2022/12/19 08:43:22;;;;;;;;;12.50;12.50;;;;;6.85;76.52;101038.91;5020683;28;46066;-59
2022/12/19 08:45:48;;;;;;;;;10.75;10.75;;;;;6.85;76.07;101042.44;5035014;28;45694;-59
2022/12/19 08:48:14;;;;;;;;;11.25;11.25;;;;;6.85;76.03;101034.59;5034922;28;45467;-59
2022/12/19 08:50:39;;;;;;;;;12.50;11.75;;;;;6.81;76.48;101037.25;5033300;28;45386;-59
2022/12/19 08:53:05;;;;;;;;;12.50;11.00;;;;;6.85;76.42;101042.44;5022028;28;46546;-60
2022/12/19 08:55:30;;;;;;;;;10.75;10.50;;;;;6.86;75.84;101049.38;5034690;28;45551;-59
2022/12/19 08:57:55;;;;;;;;;11.00;11.00;;;;;6.84;76.08;101043.28;5035025;28;45443;-59
2022/12/19 09:00:21;;;;;;;;;12.00;12.00;;;;;6.84;75.86;101038.06;5033470;28;45653;-59
2022/12/19 09:02:46;;;;;;;;;14.00;11.00;;;;;6.86;76.26;101044.16;5034496;28;45544;-59
2022/12/19 09:05:12;;;;;;;;;12.50;12.50;;;;;6.90;75.64;101038.88;5034535;28;45448;-59
2022/12/19 09:07:39;;;;;;;;;12.75;11.75;;;;;6.76;76.29;101015.53;5022115;28;45399;-59
2022/12/19 09:10:06;;;;;;;;;15.50;13.75;;;;;6.90;76.07;101028.41;5033012;28;45575;-59
2022/12/19 09:12:31;;;;;;;;;13.00;12.00;;;;;6.91;75.61;101035.38;5037660;28;47203;-59
2022/12/19 09:14:56;;;;;;;;;15.25;13.75;;;;;6.95;75.92;101047.53;5038101;28;45377;-59
2022/12/19 09:17:22;;;;;;;;;16.00;14.25;;;;;6.94;75.25;101041.44;5038050;28;45353;-59
2022/12/19 09:19:47;;;;;;;;;15.00;15.00;;;;;6.94;75.50;101040.56;5036508;28;45403;-60
2022/12/19 09:22:12;;;;;;;;;12.50;11.25;;;;;6.96;75.81;101046.63;5037681;28;46448;-60
2022/12/19 09:24:37;;;;;;;;;15.00;15.00;;;;;6.91;75.62;101038.00;5037974;28;45385;-59
2022/12/19 09:27:03;;;;;;;;;15.50;13.50;;;;;6.96;75.40;101044.91;5038156;28;45521;-59
2022/12/19 09:29:28;;;;;;;;;15.75;13.50;;;;;6.96;76.03;101038.78;5037886;28;45443;-59
2022/12/19 09:31:54;;;;;;;;;14.25;14.25;;;;;6.98;75.56;101053.56;5037820;28;45516;-59
2022/12/19 09:34:19;;;;;;;;;16.50;16.00;;;;;6.94;75.77;101059.75;5037784;28;45440;-59
2022/12/19 09:36:44;;;;;;;;;19.00;17.50;;;;;6.99;76.07;101063.16;5037750;28;45431;-59
2022/12/19 09:39:11;;;;;;;;;17.00;12.50;;;;;6.97;75.71;101058.84;5030797;28;45644;-59
2022/12/19 09:41:53;;;;;;;;;12.00;12.00;;;;;6.88;75.96;101040.63;5032909;28;46176;-59
2022/12/19 09:44:42;;;;;;;;;18.50;15.00;;;;;7.04;75.92;101073.56;5037443;28;45420;-59
2022/12/19 09:47:15;;;;;;;;;14.25;13.50;;;;;7.05;75.50;101072.69;5037700;28;45388;-59
2022/12/19 09:49:43;;;;;;;;;18.75;16.00;;;;;7.05;75.38;101084.00;5037567;28;45398;-59
2022/12/19 09:52:24;;;;;;;;;15.00;12.25;;;;;7.06;75.43;101085.72;5037111;28;46255;-59
2022/12/19 09:55:13;;;;;;;;;16.00;14.50;;;;;7.07;75.91;101090.06;5037186;28;45448;-59
2022/12/19 09:58:02;;;;;;;;;18.50;15.25;;;;;7.10;75.85;101083.94;5037487;28;45464;-60
2022/12/19 10:00:34;;;;;;;;;16.75;15.25;;;;;7.06;75.71;101077.00;5035977;28;45473;-59
2022/12/19 10:03:38;;;;;;;;;19.75;15.00;;;;;7.12;75.79;101090.03;5037200;28;46191;-59
2022/12/19 10:06:19;;;;;;;;;16.00;12.50;;;;;7.09;75.15;101074.34;5021393;28;45599;-59
2022/12/19 10:08:45;;;;;;;;;18.50;14.25;;;;;7.09;75.80;101082.19;5027381;28;45438;-59
2022/12/19 10:11:14;;;;;;;;;13.75;13.75;;;;;7.10;75.61;101076.09;5023113;28;45544;-59
2022/12/19 10:13:54;;;;;;;;;12.50;11.75;;;;;7.13;75.28;101065.59;5036950;28;45527;-60
2022/12/19 10:16:55;;;;;;;;;19.00;16.25;;;;;7.15;76.04;101061.22;5037012;28;45424;-59
2022/12/19 10:19:44;;;;;;;;;15.25;15.25;;;;;7.17;75.09;101067.25;4994267;28;45611;-60
2022/12/19 10:22:34;;;;;;;;;12.75;12.75;;;;;7.20;75.01;101062.00;5027303;28;45491;-60
2022/12/19 10:25:08;;;;;;;;;16.50;13.00;;;;;7.21;75.44;101060.25;5036945;28;45522;-59
2022/12/19 10:27:51;;;;;;;;;13.00;12.50;;;;;7.23;75.38;101050.63;5036789;28;45465;-59
2022/12/19 10:30:20;;;;;;;;;12.75;12.00;;;;;7.22;75.41;101044.53;5037062;28;45433;-59
2022/12/19 10:33:23;;;;;;;;;11.50;10.75;;;;;7.26;75.34;101056.69;5036865;28;45540;-60
2022/12/19 10:35:57;;;;;;;;;15.00;13.75;;;;;7.28;75.17;101052.31;5036674;28;45428;-60
2022/12/19 10:38:32;;;;;;;;;19.25;16.00;;;;;7.30;75.13;101050.50;5033928;28;45514;-60
2022/12/19 10:41:36;;;;;;;;;18.75;17.00;;;;;7.33;75.03;101051.34;5016953;28;45461;-60
2022/12/19 10:44:06;;;;;;;;;23.00;18.00;;;;;7.33;75.02;101035.66;5021149;28;45375;-59
2022/12/19 10:46:48;;;;;;;;;14.75;14.75;;;;;7.34;74.87;101037.41;5036330;28;46224;-60
2022/12/19 10:49:16;;;;;;;;;16.25;12.75;;;;;7.38;74.98;101032.06;5036241;28;45418;-59
2022/12/19 10:52:11;;;;;;;;;11.25;11.25;;;;;7.40;74.99;101045.16;5035522;28;45488;-59
2022/12/19 10:54:36;;;;;;;;;15.75;12.00;;;;;7.43;75.08;101042.47;5027404;28;45621;-59
2022/12/19 10:57:20;;;;;;;;;15.50;12.75;;;;;7.46;74.99;101045.06;5036334;28;46019;-59
2022/12/19 11:00:05;;;;;;;;;17.00;13.75;;;;;7.46;74.93;101040.66;5036428;28;45484;-59
2022/12/19 11:02:37;;;;;;;;;10.00;9.50;;;;;7.48;74.66;101045.91;5036484;28;45456;-59
2022/12/19 11:05:04;;;;;;;;;18.00;18.00;;;;;7.47;74.79;101034.56;5036123;28;45474;-60
2022/12/19 11:07:30;;;;;;;;;17.25;17.00;;;;;7.51;74.09;101024.91;5021780;28;45476;-59
2022/12/19 11:09:55;;;;;;;;;16.50;15.00;;;;;7.55;74.44;101030.94;5030589;28;45397;-59
2022/12/19 11:12:24;;;;;;;;;13.00;13.00;;;;;7.57;73.89;101035.28;5036248;28;45369;-60
2022/12/19 11:15:06;;;;;;;;;15.75;13.75;;;;;7.58;74.66;101037.03;5035973;28;45687;-59
2022/12/19 11:17:37;;;;;;;;;20.75;18.00;;;;;7.59;74.34;101022.19;5035707;28;45498;-59
2022/12/19 11:20:11;;;;;;;;;17.25;16.00;;;;;7.65;74.16;101025.53;5034551;28;45425;-60
2022/12/19 11:22:37;;;;;;;;;12.00;12.00;;;;;7.64;74.22;101021.22;5036034;28;45466;-60
2022/12/19 11:25:03;;;;;;;;;13.00;11.50;;;;;7.67;74.07;101021.16;5036106;28;45635;-60
2022/12/19 11:27:50;;;;;;;;;14.75;14.75;;;;;7.74;74.02;101012.31;5036190;28;46602;-59
2022/12/19 11:30:15;;;;;;;;;12.00;11.00;;;;;7.73;73.87;101010.56;5035083;28;45446;-59
2022/12/19 11:32:43;;;;;;;;;17.25;17.25;;;;;7.70;73.42;100999.28;5035631;28;45382;-59